Kenosha, WI

8:04 AM CDT on July 22, 2017 (GMT -0500)
Kenosha Regional | | Change Station
Active Advisory: Flood Warning Active Notice: Public Information Statement

Elev 741 ft 42.60 °N, 87.93 °W | Updated 11 minutes ago

Partly Cloudy
Partly Cloudy
72 °F
Feels Like 72 °F
N
6
Wind Variable Wind from WNW

Today
High -- | Low -- °F
--% Chance of Precip.
Yesterday
High -- | Low -- °F
Precip. -- in
Pressure 29.78 in
Visibility 10.0 miles
Clouds Few 5500 ft
Dew Point 68 °F
Humidity 87%
Rainfall 0.07 in
Snow Depth Not available.
5:34 AM 8:21 PM
Waning Crescent, 1% visible
METAR KENW 221253Z 29005KT 10SM FEW055 22/20 A2979 RMK AO2 SLP085 T02220200
Pressure 29.78 in
Visibility 10.0 miles
Clouds Few 5500 ft
Dew Point 68 °F
Humidity 87%
Rainfall 0.07 in
Snow Depth Not available.
5:34 AM 8:21 PM
Waning Crescent, 1% visible
METAR KENW 221253Z 29005KT 10SM FEW055 22/20 A2979 RMK AO2 SLP085 T02220200

Get Your Daily Forecast Email!

Thanks for signing up!

Be on the lookout for a verification email in your inbox.

You'll start receiving severe weather alerts in your inbox..

×

10-Day Weather Forecast

Almanac

Astronomy

Jul. 22, 2017 Rise Set
Actual Time
Civil Twilight
Nautical Twilight
Astronomical Twilight
Moon
Length of Visible Light
Length of Day
Tomorrow will be .
, % of the Moon is Illuminated

Today's Extremes

State Highs State Lows

Community

WunderPhotos

Category 6

Welcome to Category 6. This is the collective home for Weather Underground's featured writeups by Dr. Jeff Masters (right), Bob Henson (left), Chris Burt, and other regular contributors.

Nearby

Air Quality

  Air Quality AQ Index Pollutant
Not available.

Snow Depth

Station Depth Elevation

Earthquake Activity

City Distance Mag. Time & Date
Minimum magnitude displayed is 2.5.

Coastal Water Temperatures

Place Temperature

Stations

Nearby Weather Stations

Station Location Temp. Windchill Dew Point Humidity Wind Precip. Elev Updated Type
                   

Watches & Warnings

Flood Warning
Issued: 5:29 AM CDT Jul. 22, 2017 – National Weather Service

The Flood Warning continues for
the Fox River near New Munster.
* At 5:00 am Saturday the stage was 12.5 feet.
* Flood stage is 11.0 feet.
* Minor flooding is occurring and major flooding is forecast.
* Forecast... the river will continue rising to near 16.0 feet by
Monday early afternoon then begin falling.
* Impact... at 16.0 feet... many County highways are closed or
impassable. There is widespread flooding in the towns of Wheatland,
Burlington, Salem... and Village of Salem lakes. Many homes have
floodwaters in their main levels especially in town of Wheatland
along 77th St.


Lat... Lon 4262 8832 4262 8814 4252 8813 4245 8811
      4245 8827 4255 8825